Time;durP1;ratioP1;P1;durP2;ratioP2;P2;SDS_P1;SDS_P2;PMS_P1;PMS_P2;Temp;Humidity;BMP_temperature;BMP_pressure;BME280_temperature;BME280_humidity;BME280_pressure;Samples;Min_cycle;Max_cycle;Signal;HPM_P1;HPM_P2
2021/05/22 00:04:47;;;;;;;6.97;3.13;;;;;;;;;;10364328;28;20079;-63
2021/05/22 00:09:45;;;;;;;3.30;2.47;;;;;;;;;;10363795;28;20086;-62
2021/05/22 00:14:43;;;;;;;7.35;2.33;;;;;;;;;;10364118;28;20379;-62
2021/05/22 00:19:42;;;;;;;6.07;2.30;;;;;;;;;;10363835;28;20071;-62
2021/05/22 00:24:40;;;;;;;4.32;2.42;;;;;;;;;;10362823;28;20044;-62
2021/05/22 00:29:38;;;;;;;4.25;2.25;;;;;;;;;;10363484;28;20040;-62
2021/05/22 00:34:35;;;;;;;2.10;1.90;;;;;;;;;;10362854;28;20547;-62
2021/05/22 00:39:34;;;;;;;5.57;2.05;;;;;;;;;;10361825;28;20461;-62
2021/05/22 00:44:32;;;;;;;4.00;2.00;;;;;;;;;;10361718;28;20052;-62
2021/05/22 00:49:30;;;;;;;3.90;2.10;;;;;;;;;;10361943;28;20075;-62
2021/05/22 00:54:28;;;;;;;4.90;2.20;;;;;;;;;;10361952;28;20048;-62
2021/05/22 00:59:26;;;;;;;2.95;2.28;;;;;;;;;;10361974;28;20067;-62
2021/05/22 01:04:24;;;;;;;3.10;1.80;;;;;;;;;;10361134;28;20047;-63
2021/05/22 01:09:22;;;;;;;3.80;2.00;;;;;;;;;;10361612;28;20075;-62
2021/05/22 01:14:22;;;;;;;2.05;1.85;;;;;;;;;;10361610;28;20351;-62
2021/05/22 01:19:26;;;;;;;3.85;2.13;;;;;;;;;;10361356;28;20513;-62
2021/05/22 01:24:24;;;;;;;6.78;2.40;;;;;;;;;;10361196;28;20048;-62
2021/05/22 01:29:23;;;;;;;5.03;2.55;;;;;;;;;;10361482;28;20048;-62
2021/05/22 01:34:21;;;;;;;3.67;2.30;;;;;;;;;;10360951;28;20040;-62
2021/05/22 01:39:19;;;;;;;4.22;2.20;;;;;;;;;;10359481;28;20087;-62
2021/05/22 01:44:18;;;;;;;2.15;1.95;;;;;;;;;;10360002;28;20051;-61
2021/05/22 01:49:17;;;;;;;4.43;2.22;;;;;;;;;;10360000;28;20503;-61
2021/05/22 01:54:16;;;;;;;2.10;1.90;;;;;;;;;;10360091;28;20036;-62
2021/05/22 01:59:13;;;;;;;7.03;2.28;;;;;;;;;;10340849;28;20048;-62
2021/05/22 02:04:11;;;;;;;3.83;2.22;;;;;;;;;;10359712;28;20086;-62
2021/05/22 02:09:12;;;;;;;3.70;2.40;;;;;;;;;;10358708;28;20075;-62
2021/05/22 02:14:11;;;;;;;3.10;2.17;;;;;;;;;;10358904;28;20076;-62
2021/05/22 02:19:10;;;;;;;6.00;2.03;;;;;;;;;;10358988;28;20076;-62
2021/05/22 02:24:10;;;;;;;1.98;1.80;;;;;;;;;;10358554;28;20051;-62
2021/05/22 02:29:10;;;;;;;5.00;2.15;;;;;;;;;;10358868;28;20044;-63
2021/05/22 02:34:09;;;;;;;2.42;2.10;;;;;;;;;;10358816;28;20068;-62
2021/05/22 02:39:08;;;;;;;4.85;2.13;;;;;;;;;;10358427;28;20075;-62
2021/05/22 02:44:06;;;;;;;15.18;3.00;;;;;;;;;;10357156;28;20056;-61
2021/05/22 02:49:05;;;;;;;2.28;2.08;;;;;;;;;;10358026;28;20432;-63
2021/05/22 02:54:05;;;;;;;2.75;2.03;;;;;;;;;;10357548;28;20106;-62
2021/05/22 02:59:04;;;;;;;4.70;2.15;;;;;;;;;;10357452;28;20095;-62
2021/05/22 03:04:02;;;;;;;4.53;2.08;;;;;;;;;;10357553;28;20048;-61
2021/05/22 03:09:01;;;;;;;5.75;2.28;;;;;;;;;;10357255;28;20048;-61
2021/05/22 03:14:00;;;;;;;2.30;1.83;;;;;;;;;;10357389;28;20048;-62
2021/05/22 03:18:58;;;;;;;2.42;1.92;;;;;;;;;;10356917;28;20076;-62
2021/05/22 03:23:56;;;;;;;3.33;1.80;;;;;;;;;;10356040;28;20036;-62
2021/05/22 03:28:54;;;;;;;3.83;2.42;;;;;;;;;;10356883;28;20063;-62
2021/05/22 03:33:52;;;;;;;3.17;2.15;;;;;;;;;;10356937;28;20083;-62
2021/05/22 03:38:50;;;;;;;2.13;1.92;;;;;;;;;;10356777;28;20079;-63
2021/05/22 03:43:48;;;;;;;2.22;2.03;;;;;;;;;;10354599;28;20059;-62
2021/05/22 03:48:47;;;;;;;3.30;2.08;;;;;;;;;;10356585;28;20051;-61
2021/05/22 03:53:45;;;;;;;2.30;2.10;;;;;;;;;;10356798;28;20055;-61
2021/05/22 03:58:43;;;;;;;2.38;2.17;;;;;;;;;;10356803;28;20512;-61
2021/05/22 04:03:40;;;;;;;1.88;1.70;;;;;;;;;;10355624;28;20072;-61
2021/05/22 04:08:39;;;;;;;2.03;1.90;;;;;;;;;;10354746;28;20440;-61
2021/05/22 04:13:37;;;;;;;3.13;2.10;;;;;;;;;;10356771;28;20086;-61
2021/05/22 04:18:35;;;;;;;1.95;1.85;;;;;;;;;;10361732;28;20084;-60
2021/05/22 04:23:33;;;;;;;6.82;2.50;;;;;;;;;;10362483;28;20349;-61
2021/05/22 04:28:32;;;;;;;3.38;2.10;;;;;;;;;;10361466;28;20075;-62
2021/05/22 04:33:30;;;;;;;2.78;1.92;;;;;;;;;;10362821;28;20044;-61
2021/05/22 04:38:27;;;;;;;5.53;2.03;;;;;;;;;;10362628;28;20087;-62
2021/05/22 04:43:25;;;;;;;3.17;1.80;;;;;;;;;;10380795;28;20056;-63
2021/05/22 04:48:24;;;;;;;2.53;2.05;;;;;;;;;;10367828;28;20089;-61
2021/05/22 04:53:22;;;;;;;4.15;1.98;;;;;;;;;;10380784;28;20059;-60
2021/05/22 04:58:20;;;;;;;5.30;1.98;;;;;;;;;;10351573;28;20075;-60
2021/05/22 05:03:18;;;;;;;2.47;1.80;;;;;;;;;;10356769;28;20527;-60
2021/05/22 05:08:20;;;;;;;1.67;1.58;;;;;;;;;;10360274;28;20076;-60
2021/05/22 05:13:19;;;;;;;4.15;1.90;;;;;;;;;;10360404;28;20504;-61
2021/05/22 05:18:17;;;;;;;2.72;2.13;;;;;;;;;;10361212;28;20075;-60
2021/05/22 05:23:14;;;;;;;4.53;2.03;;;;;;;;;;10341722;28;20420;-61
2021/05/22 05:28:13;;;;;;;3.47;2.00;;;;;;;;;;10359853;28;20044;-60
2021/05/22 05:33:11;;;;;;;2.35;2.00;;;;;;;;;;10360522;28;20044;-60
2021/05/22 05:38:09;;;;;;;2.20;2.00;;;;;;;;;;10359515;28;20071;-62
2021/05/22 05:43:10;;;;;;;3.83;2.33;;;;;;;;;;10345782;28;20056;-62
2021/05/22 05:48:09;;;;;;;4.88;2.15;;;;;;;;;;10359987;28;20051;-62
2021/05/22 05:53:07;;;;;;;2.05;1.90;;;;;;;;;;10358346;28;20044;-62
2021/05/22 05:58:05;;;;;;;2.28;2.08;;;;;;;;;;10356402;28;20138;-61
2021/05/22 06:03:03;;;;;;;4.85;1.98;;;;;;;;;;10345435;28;20465;-61
2021/05/22 06:08:01;;;;;;;2.75;2.05;;;;;;;;;;10357634;28;20071;-61
2021/05/22 06:12:59;;;;;;;2.45;2.25;;;;;;;;;;10364981;28;20527;-62
2021/05/22 06:17:57;;;;;;;2.22;2.00;;;;;;;;;;10370593;28;20080;-61
2021/05/22 06:22:55;;;;;;;3.15;2.00;;;;;;;;;;10354064;28;20080;-61
2021/05/22 06:27:54;;;;;;;2.75;1.90;;;;;;;;;;10352934;28;20084;-61
2021/05/22 06:32:52;;;;;;;3.50;2.35;;;;;;;;;;10353988;28;20079;-61
2021/05/22 06:37:49;;;;;;;4.90;1.73;;;;;;;;;;10328811;28;20496;-63
2021/05/22 06:42:47;;;;;;;1.70;1.60;;;;;;;;;;10323954;28;20135;-62
2021/05/22 06:47:47;;;;;;;8.55;4.47;;;;;;;;;;10330573;28;20078;-63
2021/05/22 06:52:45;;;;;;;3.75;1.75;;;;;;;;;;10350661;28;20067;-62
2021/05/22 06:57:43;;;;;;;3.33;2.08;;;;;;;;;;10349587;28;20079;-62
2021/05/22 07:02:41;;;;;;;2.90;1.75;;;;;;;;;;10349450;28;20079;-63
2021/05/22 07:07:41;;;;;;;2.33;1.70;;;;;;;;;;10352735;28;20076;-62
2021/05/22 07:12:39;;;;;;;2.83;1.60;;;;;;;;;;10358220;28;20075;-62
2021/05/22 07:17:37;;;;;;;4.03;1.90;;;;;;;;;;10358044;28;20071;-61
2021/05/22 07:22:35;;;;;;;2.38;2.17;;;;;;;;;;10358121;28;20043;-62
2021/05/22 07:27:35;;;;;;;3.30;2.67;;;;;;;;;;10357173;28;20525;-62
2021/05/22 07:32:33;;;;;;;7.93;2.55;;;;;;;;;;10357375;28;20059;-62
2021/05/22 07:37:32;;;;;;;6.65;1.73;;;;;;;;;;10356813;28;20079;-64
2021/05/22 07:42:31;;;;;;;4.18;1.88;;;;;;;;;;10356334;28;20056;-60
2021/05/22 07:47:30;;;;;;;3.40;2.65;;;;;;;;;;10359840;28;20071;-63
2021/05/22 07:52:29;;;;;;;4.38;1.83;;;;;;;;;;10365686;28;20076;-64
2021/05/22 07:57:27;;;;;;;2.33;1.42;;;;;;;;;;10364567;28;20091;-63
2021/05/22 08:02:25;;;;;;;2.42;2.22;;;;;;;;;;10364280;28;20134;-64
2021/05/22 08:07:25;;;;;;;3.17;2.25;;;;;;;;;;10364399;28;20087;-64
2021/05/22 08:12:22;;;;;;;2.75;2.20;;;;;;;;;;10365045;28;20040;-62
2021/05/22 08:17:22;;;;;;;2.72;2.17;;;;;;;;;;10362965;28;20078;-64
2021/05/22 08:22:20;;;;;;;3.47;2.80;;;;;;;;;;10356435;28;20064;-62
2021/05/22 08:27:20;;;;;;;9.43;2.78;;;;;;;;;;10355611;28;20064;-61
2021/05/22 08:32:25;;;;;;;2.20;2.00;;;;;;;;;;10346664;28;20059;-62
2021/05/22 08:37:24;;;;;;;2.15;1.95;;;;;;;;;;10355039;28;20084;-62
2021/05/22 08:42:23;;;;;;;5.25;1.80;;;;;;;;;;10357665;28;20517;-62
2021/05/22 08:47:22;;;;;;;2.65;1.77;;;;;;;;;;10357087;28;20094;-63
2021/05/22 08:52:22;;;;;;;2.22;1.90;;;;;;;;;;10361577;28;20071;-64
2021/05/22 08:57:20;;;;;;;2.40;2.20;;;;;;;;;;10360852;28;20044;-63
2021/05/22 09:02:19;;;;;;;2.45;2.10;;;;;;;;;;10359892;28;20048;-61
2021/05/22 09:07:22;;;;;;;3.45;1.83;;;;;;;;;;10359639;28;20075;-63
2021/05/22 09:12:22;;;;;;;1.70;1.60;;;;;;;;;;10363721;28;20078;-61
2021/05/22 09:17:21;;;;;;;3.55;1.65;;;;;;;;;;10373941;28;20059;-63
2021/05/22 09:22:20;;;;;;;2.58;2.13;;;;;;;;;;10354931;28;20065;-62
2021/05/22 09:27:18;;;;;;;3.10;1.75;;;;;;;;;;10361694;28;20496;-64
2021/05/22 09:32:16;;;;;;;2.55;1.70;;;;;;;;;;10351884;28;20393;-63
2021/05/22 09:37:17;;;;;;;4.40;1.40;;;;;;;;;;10355235;28;20071;-62
2021/05/22 09:42:15;;;;;;;3.63;1.85;;;;;;;;;;10357700;28;20076;-59
2021/05/22 09:47:13;;;;;;;3.33;2.22;;;;;;;;;;10360078;28;20067;-59
2021/05/22 09:52:12;;;;;;;1.70;1.60;;;;;;;;;;10359517;28;20083;-60
2021/05/22 09:57:14;;;;;;;2.20;2.00;;;;;;;;;;10346168;28;20048;-59
2021/05/22 10:02:13;;;;;;;1.77;1.60;;;;;;;;;;10354049;28;20094;-59
2021/05/22 10:07:11;;;;;;;4.85;2.20;;;;;;;;;;10358743;28;20032;-60
2021/05/22 10:12:10;;;;;;;3.60;1.92;;;;;;;;;;10352284;28;20064;-61
2021/05/22 10:17:11;;;;;;;1.90;1.67;;;;;;;;;;10357077;28;20075;-62
2021/05/22 10:22:10;;;;;;;3.85;2.45;;;;;;;;;;10350901;28;20098;-59
2021/05/22 10:27:10;;;;;;;6.20;2.83;;;;;;;;;;10351482;28;20086;-60
2021/05/22 10:32:17;;;;;;;4.03;1.92;;;;;;;;;;10330798;28;20551;-61
2021/05/22 10:37:36;;;;;;;4.53;2.10;;;;;;;;;;10352557;28;20098;-61
2021/05/22 10:42:49;;;;;;;2.65;1.50;;;;;;;;;;10352950;28;20091;-61
2021/05/22 10:47:48;;;;;;;2.78;1.75;;;;;;;;;;10338494;28;20055;-60
2021/05/22 10:52:46;;;;;;;1.92;1.50;;;;;;;;;;10352470;28;20071;-59
2021/05/22 10:58:02;;;;;;;1.88;1.42;;;;;;;;;;10356143;28;20074;-61
2021/05/22 11:03:09;;;;;;;2.53;1.77;;;;;;;;;;10356243;28;20067;-61
2021/05/22 11:08:25;;;;;;;1.70;1.60;;;;;;;;;;10339966;28;20048;-60
2021/05/22 11:13:37;;;;;;;3.83;1.40;;;;;;;;;;10356677;28;20078;-61
2021/05/22 11:18:54;;;;;;;1.98;1.30;;;;;;;;;;10357257;28;20086;-60
2021/05/22 11:24:04;;;;;;;1.50;1.30;;;;;;;;;;10366984;28;20406;-60
2021/05/22 11:29:02;;;;;;;1.35;1.17;;;;;;;;;;10365803;28;20075;-60
2021/05/22 11:34:15;;;;;;;3.58;1.85;;;;;;;;;;10368930;28;20056;-61
2021/05/22 11:39:28;;;;;;;2.22;1.70;;;;;;;;;;10366268;28;20059;-60
2021/05/22 11:44:27;;;;;;;2.08;1.83;;;;;;;;;;10368272;28;20082;-61
2021/05/22 11:49:32;;;;;;;1.67;1.58;;;;;;;;;;10369996;28;20095;-60
2021/05/22 11:54:32;;;;;;;2.85;1.40;;;;;;;;;;10368771;28;20441;-60
2021/05/22 11:59:38;;;;;;;4.18;1.45;;;;;;;;;;10369950;28;20536;-60
2021/05/22 12:04:39;;;;;;;1.88;1.70;;;;;;;;;;10367214;28;20071;-59
2021/05/22 12:09:38;;;;;;;2.35;1.58;;;;;;;;;;10369279;28;20074;-60
2021/05/22 12:14:41;;;;;;;2.40;1.73;;;;;;;;;;10368825;28;20043;-60
2021/05/22 12:19:40;;;;;;;2.45;1.30;;;;;;;;;;10363471;28;20064;-59
2021/05/22 12:24:40;;;;;;;3.28;1.33;;;;;;;;;;10367300;28;20068;-60
2021/05/22 12:29:40;;;;;;;1.73;1.58;;;;;;;;;;10368644;28;20129;-58
2021/05/22 12:34:38;;;;;;;2.42;1.40;;;;;;;;;;10364207;28;20523;-55
2021/05/22 12:39:37;;;;;;;7.72;1.40;;;;;;;;;;10359787;28;20068;-55
2021/05/22 12:44:35;;;;;;;2.55;1.98;;;;;;;;;;10362114;28;20051;-59
2021/05/22 12:49:34;;;;;;;2.30;0.90;;;;;;;;;;10363148;28;20040;-59
2021/05/22 12:54:34;;;;;;;2.78;1.40;;;;;;;;;;10361948;28;20047;-58
2021/05/22 12:59:32;;;;;;;1.23;1.13;;;;;;;;;;10362381;28;20055;-59
2021/05/22 13:04:30;;;;;;;1.85;1.13;;;;;;;;;;10359494;28;20523;-58
2021/05/22 13:09:28;;;;;;;3.67;2.63;;;;;;;;;;10359262;28;20079;-57
2021/05/22 13:14:41;;;;;;;2.10;1.90;;;;;;;;;;10321567;28;20068;-58
2021/05/22 13:19:39;;;;;;;2.50;1.45;;;;;;;;;;10358617;28;20071;-57
2021/05/22 13:24:56;;;;;;;4.85;1.90;;;;;;;;;;10359620;28;20523;-59
2021/05/22 13:29:54;;;;;;;3.10;2.45;;;;;;;;;;10358225;28;20036;-58
2021/05/22 13:34:52;;;;;;;1.73;1.60;;;;;;;;;;10353212;28;20044;-58
2021/05/22 13:39:51;;;;;;;0.90;0.90;;;;;;;;;;10357377;28;20067;-58
2021/05/22 13:44:48;;;;;;;1.40;1.30;;;;;;;;;;10358426;28;20051;-59
2021/05/22 13:49:46;;;;;;;2.10;1.10;;;;;;;;;;10356032;28;20496;-58
2021/05/22 13:54:44;;;;;;;1.15;1.02;;;;;;;;;;10357622;28;20103;-59
2021/05/22 13:59:43;;;;;;;3.40;2.22;;;;;;;;;;10359008;28;20086;-59
2021/05/22 14:04:41;;;;;;;1.92;0.90;;;;;;;;;;10359057;28;20067;-56
2021/05/22 14:09:43;;;;;;;5.10;1.60;;;;;;;;;;10359035;28;20067;-59
2021/05/22 14:14:41;;;;;;;2.28;1.02;;;;;;;;;;10344582;28;20068;-57
2021/05/22 14:19:40;;;;;;;0.90;0.90;;;;;;;;;;10358492;28;20071;-58
2021/05/22 14:24:38;;;;;;;0.90;0.90;;;;;;;;;;10358928;28;20528;-60
2021/05/22 14:29:36;;;;;;;3.10;1.88;;;;;;;;;;10358292;28;20079;-60
2021/05/22 14:34:34;;;;;;;1.75;1.17;;;;;;;;;;10357819;28;20079;-59
2021/05/22 14:39:33;;;;;;;5.35;2.42;;;;;;;;;;10355832;28;20071;-57
2021/05/22 14:44:31;;;;;;;3.65;3.10;;;;;;;;;;10340356;28;20078;-57
2021/05/22 14:49:32;;;;;;;4.28;3.85;;;;;;;;;;10355941;28;20562;-56
2021/05/22 14:54:30;;;;;;;3.30;3.00;;;;;;;;;;10356171;28;20040;-57
2021/05/22 14:59:28;;;;;;;1.85;1.38;;;;;;;;;;10348300;28;20068;-59
2021/05/22 15:04:26;;;;;;;4.85;3.13;;;;;;;;;;10355878;28;20051;-58
2021/05/22 15:09:24;;;;;;;7.47;3.70;;;;;;;;;;10352720;28;20047;-57
2021/05/22 15:14:22;;;;;;;4.57;2.05;;;;;;;;;;10317735;28;20044;-58
2021/05/22 15:19:21;;;;;;;1.25;1.10;;;;;;;;;;10355511;28;20083;-56
2021/05/22 15:24:18;;;;;;;2.78;2.30;;;;;;;;;;10354277;28;20071;-58
2021/05/22 15:29:16;;;;;;;2.47;1.52;;;;;;;;;;10336862;28;20068;-56
2021/05/22 15:34:14;;;;;;;3.03;1.90;;;;;;;;;;10354098;28;20378;-55
2021/05/22 15:39:13;;;;;;;3.88;3.05;;;;;;;;;;10355180;28;20075;-56
2021/05/22 15:44:13;;;;;;;1.27;0.70;;;;;;;;;;10354229;28;20052;-56
2021/05/22 15:49:43;;;;;;;3.08;1.58;;;;;;;;;;10353734;28;20075;-57
2021/05/22 15:59:54;;;;;;;3.55;1.70;;;;;;;;;;10321441;28;20091;-58
2021/05/22 16:05:03;;;;;;;1.27;1.17;;;;;;;;;;10355066;28;20082;-57
2021/05/22 16:10:02;;;;;;;2.08;1.88;;;;;;;;;;10361235;28;20068;-57
2021/05/22 16:15:07;;;;;;;4.00;1.75;;;;;;;;;;10363790;28;20044;-57
2021/05/22 16:20:06;;;;;;;2.88;1.40;;;;;;;;;;10328901;28;20485;-56
2021/05/22 16:25:05;;;;;;;6.75;2.47;;;;;;;;;;10322541;28;20040;-57
2021/05/22 16:30:03;;;;;;;8.35;5.20;;;;;;;;;;10321748;28;20048;-58
2021/05/22 16:35:01;;;;;;;3.40;2.78;;;;;;;;;;10343476;28;20040;-57
2021/05/22 16:39:59;;;;;;;8.05;6.88;;;;;;;;;;10361551;28;20071;-58
2021/05/22 16:45:01;;;;;;;9.45;7.82;;;;;;;;;;10361992;28;20055;-58
2021/05/22 16:49:59;;;;;;;3.38;2.50;;;;;;;;;;10361558;28;20454;-58
2021/05/22 16:54:57;;;;;;;5.05;2.45;;;;;;;;;;10353719;28;20558;-55
2021/05/22 16:59:55;;;;;;;5.47;2.42;;;;;;;;;;10356612;28;20071;-59
2021/05/22 17:04:53;;;;;;;9.48;2.47;;;;;;;;;;10362299;28;20055;-59
2021/05/22 17:09:51;;;;;;;5.75;2.85;;;;;;;;;;10344611;28;20052;-57
2021/05/22 17:14:49;;;;;;;5.65;2.78;;;;;;;;;;10361536;28;20452;-56
2021/05/22 17:19:47;;;;;;;5.45;2.15;;;;;;;;;;10342643;28;20117;-57
2021/05/22 17:24:46;;;;;;;6.25;2.55;;;;;;;;;;10360980;28;20043;-57
2021/05/22 17:29:44;;;;;;;9.27;2.80;;;;;;;;;;10352706;28;20075;-57
2021/05/22 17:34:42;;;;;;;7.80;2.85;;;;;;;;;;10361142;28;20041;-60
2021/05/22 17:39:40;;;;;;;7.78;2.17;;;;;;;;;;10351450;28;20063;-61
2021/05/22 17:44:39;;;;;;;4.30;1.83;;;;;;;;;;10318536;28;20047;-59
2021/05/22 17:49:37;;;;;;;7.90;2.20;;;;;;;;;;10318185;28;20049;-60
2021/05/22 17:54:34;;;;;;;4.65;2.10;;;;;;;;;;10326168;28;20075;-58
2021/05/22 17:59:32;;;;;;;2.97;2.23;;;;;;;;;;10356071;28;20071;-59
2021/05/22 18:04:32;;;;;;;6.35;2.08;;;;;;;;;;10359640;28;20067;-60
2021/05/22 18:09:30;;;;;;;5.55;2.45;;;;;;;;;;10359223;28;20079;-58
2021/05/22 18:14:28;;;;;;;6.80;3.15;;;;;;;;;;10358995;28;20044;-61
2021/05/22 18:19:28;;;;;;;119.45;107.40;;;;;;;;;;10352167;28;20501;-60
2021/05/22 18:24:27;;;;;;;73.63;65.88;;;;;;;;;;10354312;28;20075;-61
2021/05/22 18:29:25;;;;;;;6.18;3.08;;;;;;;;;;10354434;28;20079;-58
2021/05/22 18:34:24;;;;;;;16.58;12.82;;;;;;;;;;10349545;28;20087;-59
2021/05/22 18:39:27;;;;;;;33.00;29.60;;;;;;;;;;10355946;28;20082;-59
2021/05/22 18:44:25;;;;;;;5.78;2.75;;;;;;;;;;10357640;28;20468;-59
2021/05/22 18:49:23;;;;;;;2.70;1.80;;;;;;;;;;10357586;28;20055;-59
2021/05/22 18:54:22;;;;;;;2.80;1.48;;;;;;;;;;10356062;28;20512;-59
2021/05/22 18:59:21;;;;;;;3.38;1.80;;;;;;;;;;10356485;28;20444;-59
2021/05/22 19:04:19;;;;;;;8.23;1.90;;;;;;;;;;10356405;28;20063;-56
2021/05/22 19:09:16;;;;;;;5.60;3.20;;;;;;;;;;10351369;28;20070;-59
2021/05/22 19:14:14;;;;;;;12.55;8.18;;;;;;;;;;10337671;28;20476;-59
2021/05/22 19:19:13;;;;;;;11.38;5.57;;;;;;;;;;10318574;28;20059;-60
2021/05/22 19:24:15;;;;;;;11.00;4.53;;;;;;;;;;10316215;28;20076;-59
2021/05/22 19:29:13;;;;;;;5.32;2.85;;;;;;;;;;10327904;28;20071;-60
2021/05/22 19:34:11;;;;;;;4.03;2.55;;;;;;;;;;10342655;28;20078;-59
2021/05/22 19:39:10;;;;;;;2.05;1.70;;;;;;;;;;10339875;28;20586;-58
2021/05/22 19:44:08;;;;;;;1.92;1.75;;;;;;;;;;10354748;28;20080;-57
2021/05/22 19:49:06;;;;;;;4.00;1.70;;;;;;;;;;10353721;28;20424;-59
2021/05/22 19:54:04;;;;;;;1.55;1.45;;;;;;;;;;10357568;28;20076;-59
2021/05/22 19:59:03;;;;;;;3.58;1.70;;;;;;;;;;10361550;28;20044;-59
2021/05/22 20:04:02;;;;;;;7.30;1.80;;;;;;;;;;10360123;28;20562;-59
2021/05/22 20:09:00;;;;;;;3.17;1.60;;;;;;;;;;10362717;28;20051;-59
2021/05/22 20:13:57;;;;;;;3.13;1.90;;;;;;;;;;10362872;28;20072;-59
2021/05/22 20:18:56;;;;;;;9.10;3.70;;;;;;;;;;10362230;28;20134;-61
2021/05/22 20:23:54;;;;;;;52.92;45.33;;;;;;;;;;10353370;28;20707;-60
2021/05/22 20:28:52;;;;;;;7.80;4.38;;;;;;;;;;10349882;28;20071;-58
2021/05/22 20:33:51;;;;;;;9.77;8.85;;;;;;;;;;10350344;28;20067;-61
2021/05/22 20:38:50;;;;;;;2.75;1.90;;;;;;;;;;10353065;28;20124;-61
2021/05/22 20:43:48;;;;;;;2.05;1.50;;;;;;;;;;10357427;28;20087;-60
2021/05/22 20:48:47;;;;;;;2.97;1.70;;;;;;;;;;10354322;28;20068;-59
2021/05/22 20:53:45;;;;;;;1.83;1.63;;;;;;;;;;10357591;28;20079;-60
2021/05/22 20:58:44;;;;;;;1.60;1.50;;;;;;;;;;10356035;28;20087;-59
2021/05/22 21:03:44;;;;;;;13.65;2.22;;;;;;;;;;10355450;28;20079;-57
2021/05/22 21:08:42;;;;;;;2.03;1.38;;;;;;;;;;10357443;28;20070;-59
2021/05/22 21:13:40;;;;;;;2.90;1.30;;;;;;;;;;10360447;28;20060;-59
2021/05/22 21:18:39;;;;;;;5.05;1.88;;;;;;;;;;10360205;28;20079;-60
2021/05/22 21:23:37;;;;;;;2.10;1.25;;;;;;;;;;10360120;28;20489;-59
2021/05/22 21:28:35;;;;;;;8.00;1.70;;;;;;;;;;10349248;28;20146;-59
2021/05/22 21:33:35;;;;;;;4.38;2.65;;;;;;;;;;10358643;28;20078;-57
2021/05/22 21:38:34;;;;;;;2.85;1.30;;;;;;;;;;10355629;28;20071;-59
2021/05/22 21:43:32;;;;;;;5.22;1.30;;;;;;;;;;10351473;28;20508;-60
2021/05/22 21:48:30;;;;;;;1.20;1.10;;;;;;;;;;10358711;28;20143;-57
2021/05/22 21:53:28;;;;;;;4.95;2.03;;;;;;;;;;10346584;28;20079;-59
2021/05/22 21:58:27;;;;;;;8.57;2.53;;;;;;;;;;10354546;28;20063;-60
2021/05/22 22:03:26;;;;;;;5.45;2.88;;;;;;;;;;10347628;28;20496;-60
2021/05/22 22:08:24;;;;;;;3.15;1.42;;;;;;;;;;10347143;28;20067;-60
2021/05/22 22:13:23;;;;;;;1.85;1.55;;;;;;;;;;10345283;28;20068;-60
2021/05/22 22:18:22;;;;;;;3.65;1.67;;;;;;;;;;10353144;28;20086;-59
2021/05/22 22:23:21;;;;;;;1.30;1.20;;;;;;;;;;10349894;28;20537;-60
2021/05/22 22:28:19;;;;;;;5.18;1.50;;;;;;;;;;10358399;28;20521;-59
2021/05/22 22:33:18;;;;;;;4.47;1.70;;;;;;;;;;10358448;28;20539;-60
2021/05/22 22:38:17;;;;;;;2.33;1.50;;;;;;;;;;10358200;28;20078;-59
2021/05/22 22:43:15;;;;;;;3.25;1.38;;;;;;;;;;10356181;28;20090;-59
2021/05/22 22:48:12;;;;;;;3.67;1.40;;;;;;;;;;10357917;28;20503;-60
2021/05/22 22:53:10;;;;;;;3.90;1.50;;;;;;;;;;10357816;28;20081;-58
2021/05/22 22:58:09;;;;;;;5.88;1.73;;;;;;;;;;10357316;28;20532;-59
2021/05/22 23:03:07;;;;;;;1.42;1.10;;;;;;;;;;10357490;28;20087;-59
2021/05/22 23:08:05;;;;;;;3.63;1.55;;;;;;;;;;10356987;28;20505;-59
2021/05/22 23:13:03;;;;;;;1.83;1.30;;;;;;;;;;10357360;28;20052;-59
2021/05/22 23:18:02;;;;;;;6.57;1.50;;;;;;;;;;10355858;28;20047;-59
2021/05/22 23:23:00;;;;;;;2.63;1.50;;;;;;;;;;10356350;28;20086;-59
2021/05/22 23:27:58;;;;;;;6.53;1.02;;;;;;;;;;10356159;28;20079;-59
2021/05/22 23:32:56;;;;;;;1.92;1.45;;;;;;;;;;10356348;28;20080;-59
2021/05/22 23:37:55;;;;;;;3.70;1.45;;;;;;;;;;10356948;28;20055;-57
2021/05/22 23:42:53;;;;;;;9.07;1.33;;;;;;;;;;10356362;28;20095;-59
2021/05/22 23:47:51;;;;;;;1.45;1.35;;;;;;;;;;10355125;28;20531;-60
2021/05/22 23:52:50;;;;;;;2.80;1.52;;;;;;;;;;10356230;28;20040;-60
2021/05/22 23:57:50;;;;;;;4.32;1.50;;;;;;;;;;10356170;28;20051;-60
